Time;durP1;ratioP1;P1;durP2;ratioP2;P2;SDS_P1;SDS_P2;PMS_P1;PMS_P2;Temp;Humidity;BMP_temperature;BMP_pressure;BME280_temperature;BME280_humidity;BME280_pressure;Samples;Min_cycle;Max_cycle;Signal;HPM_P1;HPM_P2
2022/10/27 00:01:52;;;;;;;;;;;14.20;99.90;;;;;;5066102;28;19935;-78
2022/10/27 00:04:19;;;;;;;;;;;14.20;99.90;;;;;;5064076;28;20019;-78
2022/10/27 00:06:46;;;;;;;;;;;14.20;99.90;;;;;;5060478;28;19925;-78
2022/10/27 00:09:13;;;;;;;;;;;14.10;99.90;;;;;;5066291;28;20454;-78
2022/10/27 00:11:39;;;;;;;;;;;14.10;99.90;;;;;;5098816;28;19960;-78
2022/10/27 00:14:08;;;;;;;;;;;14.10;99.90;;;;;;5065185;28;19951;-78
2022/10/27 00:16:34;;;;;;;;;;;14.10;99.90;;;;;;5060994;28;19933;-79
2022/10/27 00:19:01;;;;;;;;;;;14.10;99.90;;;;;;5066344;28;19936;-78
2022/10/27 00:21:28;;;;;;;;;;;14.10;99.90;;;;;;5059944;28;20051;-78
2022/10/27 00:23:55;;;;;;;;;;;14.10;99.90;;;;;;5063205;28;19931;-79
2022/10/27 00:26:22;;;;;;;;;;;14.10;99.90;;;;;;5065613;28;20394;-78
2022/10/27 00:28:49;;;;;;;;;;;14.00;99.90;;;;;;5065691;28;19948;-79
2022/10/27 00:31:18;;;;;;;;;;;14.00;99.90;;;;;;5057599;28;19925;-79
2022/10/27 00:33:45;;;;;;;;;;;14.00;99.90;;;;;;5061286;28;19975;-78
2022/10/27 00:36:13;;;;;;;;;;;14.00;99.90;;;;;;5063164;28;19932;-78
2022/10/27 00:38:39;;;;;;;;;;;14.00;99.90;;;;;;5065264;28;19966;-77
2022/10/27 00:41:07;;;;;;;;;;;14.00;99.90;;;;;;5060807;28;19994;-78
2022/10/27 00:43:35;;;;;;;;;;;13.90;99.90;;;;;;5064021;28;19946;-79
2022/10/27 00:46:02;;;;;;;;;;;;;;;;;;5065273;28;19956;-78
2022/10/27 00:48:31;;;;;;;;;;;13.90;99.90;;;;;;5065253;28;19933;-76
2022/10/27 00:50:59;;;;;;;;;;;13.90;99.90;;;;;;5061235;28;19967;-77
2022/10/27 00:53:26;;;;;;;;;;;13.90;99.90;;;;;;5061469;28;20023;-78
2022/10/27 00:55:53;;;;;;;;;;;13.90;99.90;;;;;;5063976;28;20015;-78
2022/10/27 00:58:20;;;;;;;;;;;13.90;99.90;;;;;;5067152;28;20018;-78
2022/10/27 01:00:47;;;;;;;;;;;13.80;99.90;;;;;;5060025;28;19931;-78
2022/10/27 01:03:16;;;;;;;;;;;13.80;99.90;;;;;;5094735;28;19925;-78
2022/10/27 01:05:44;;;;;;;;;;;13.80;99.90;;;;;;5062485;28;19974;-78
2022/10/27 01:08:12;;;;;;;;;;;13.80;99.90;;;;;;5063458;28;19924;-78
2022/10/27 01:10:39;;;;;;;;;;;13.80;99.90;;;;;;5062813;28;20279;-78
2022/10/27 01:13:06;;;;;;;;;;;13.70;99.90;;;;;;5061027;28;20541;-78
2022/10/27 01:15:37;;;;;;;;;;;13.80;99.90;;;;;;5065717;28;20461;-79
2022/10/27 01:18:08;;;;;;;;;;;13.70;99.90;;;;;;5057041;28;20456;-78
2022/10/27 01:20:55;;;;;;;;;;;13.70;99.90;;;;;;5063116;28;19924;-78
2022/10/27 01:23:30;;;;;;;;;;;13.70;99.90;;;;;;5057381;28;20406;-78
2022/10/27 01:26:26;;;;;;;;;;;13.70;99.90;;;;;;5064885;28;20019;-78
2022/10/27 01:29:07;;;;;;;;;;;13.70;99.90;;;;;;5062799;28;19924;-78
2022/10/27 01:31:37;;;;;;;;;;;13.70;99.90;;;;;;5062647;28;19970;-78
2022/10/27 01:34:07;;;;;;;;;;;13.60;99.90;;;;;;5062579;28;19933;-78
2022/10/27 01:36:36;;;;;;;;;;;13.60;99.90;;;;;;5063085;28;19928;-78
2022/10/27 01:39:04;;;;;;;;;;;13.60;99.90;;;;;;5094573;28;19932;-78
2022/10/27 01:41:33;;;;;;;;;;;13.60;99.90;;;;;;5058419;28;19925;-79
2022/10/27 01:44:04;;;;;;;;;;;13.60;99.90;;;;;;5062547;28;19997;-78
2022/10/27 01:46:31;;;;;;;;;;;13.60;99.90;;;;;;5060494;28;20422;-79
2022/10/27 01:48:59;;;;;;;;;;;13.60;99.90;;;;;;5065816;28;20015;-78
2022/10/27 01:51:26;;;;;;;;;;;13.50;99.90;;;;;;5065487;28;19931;-79
2022/10/27 01:53:54;;;;;;;;;;;13.50;99.90;;;;;;5059862;28;19978;-78
2022/10/27 01:56:29;;;;;;;;;;;13.50;99.90;;;;;;5064355;28;20467;-78
2022/10/27 01:59:06;;;;;;;;;;;13.50;99.90;;;;;;5095939;28;20031;-78
2022/10/27 02:01:40;;;;;;;;;;;13.50;99.90;;;;;;5062426;28;19928;-78
2022/10/27 02:04:11;;;;;;;;;;;13.50;99.90;;;;;;5060327;28;19967;-78
2022/10/27 02:06:41;;;;;;;;;;;13.40;99.90;;;;;;5062713;28;20383;-78
2022/10/27 02:09:08;;;;;;;;;;;;;;;;;;5064661;28;19925;-78
2022/10/27 02:11:37;;;;;;;;;;;13.40;99.90;;;;;;5055430;28;20044;-78
2022/10/27 02:14:04;;;;;;;;;;;13.40;99.90;;;;;;5063889;28;19938;-78
2022/10/27 02:16:33;;;;;;;;;;;13.40;99.90;;;;;;5063387;28;20015;-78
2022/10/27 02:19:02;;;;;;;;;;;13.40;99.90;;;;;;5098180;28;19931;-77
2022/10/27 02:21:35;;;;;;;;;;;13.30;99.90;;;;;;5060577;28;20011;-78
2022/10/27 02:24:02;;;;;;;;;;;13.30;99.90;;;;;;5064639;28;19947;-78
2022/10/27 02:26:32;;;;;;;;;;;13.30;99.90;;;;;;5060700;28;20541;-78
2022/10/27 02:29:01;;;;;;;;;;;13.30;99.90;;;;;;5061112;28;19963;-78
2022/10/27 02:31:29;;;;;;;;;;;13.30;99.90;;;;;;5064728;28;19928;-78
2022/10/27 02:33:57;;;;;;;;;;;13.30;99.90;;;;;;5063435;28;19971;-78
2022/10/27 02:36:24;;;;;;;;;;;13.20;99.90;;;;;;5062303;28;20522;-78
2022/10/27 02:38:52;;;;;;;;;;;13.20;99.90;;;;;;5064679;28;19924;-78
2022/10/27 02:41:19;;;;;;;;;;;13.20;99.90;;;;;;5068343;28;19928;-78
2022/10/27 02:43:46;;;;;;;;;;;13.10;99.90;;;;;;5066231;28;19933;-78
2022/10/27 02:46:12;;;;;;;;;;;13.10;99.90;;;;;;5064936;28;19925;-78
2022/10/27 02:48:39;;;;;;;;;;;13.10;99.90;;;;;;5071489;28;19928;-78
2022/10/27 02:51:06;;;;;;;;;;;13.10;99.90;;;;;;5067285;28;19924;-78
2022/10/27 02:53:33;;;;;;;;;;;13.00;99.90;;;;;;5064020;28;19978;-78
2022/10/27 02:56:01;;;;;;;;;;;13.10;99.90;;;;;;5064062;28;19924;-78
2022/10/27 02:58:28;;;;;;;;;;;13.00;99.90;;;;;;5069681;28;19952;-78
2022/10/27 03:00:57;;;;;;;;;;;13.00;99.90;;;;;;5068314;28;19924;-79
2022/10/27 03:03:24;;;;;;;;;;;12.90;99.90;;;;;;5067000;28;20326;-78
2022/10/27 03:05:51;;;;;;;;;;;12.90;99.90;;;;;;5063444;28;19960;-78
2022/10/27 03:08:18;;;;;;;;;;;12.90;99.90;;;;;;5065492;28;19925;-78
2022/10/27 03:10:45;;;;;;;;;;;13.00;99.90;;;;;;5066728;28;19924;-78
2022/10/27 03:13:13;;;;;;;;;;;12.90;99.90;;;;;;5063826;28;19932;-78
2022/10/27 03:15:40;;;;;;;;;;;12.80;99.90;;;;;;5060995;28;20302;-78
2022/10/27 03:18:06;;;;;;;;;;;12.80;99.90;;;;;;5064931;28;19981;-78
2022/10/27 03:20:33;;;;;;;;;;;12.80;99.90;;;;;;5067846;28;19939;-79
2022/10/27 03:23:00;;;;;;;;;;;12.80;99.90;;;;;;5059014;28;20313;-78
2022/10/27 03:25:29;;;;;;;;;;;12.80;99.90;;;;;;5067432;28;19959;-78
2022/10/27 03:27:56;;;;;;;;;;;12.80;99.90;;;;;;5065408;28;19970;-78
2022/10/27 03:30:24;;;;;;;;;;;12.70;99.90;;;;;;5063133;28;19933;-78
2022/10/27 03:32:51;;;;;;;;;;;12.70;99.90;;;;;;5067320;28;19925;-79
2022/10/27 03:35:19;;;;;;;;;;;12.70;99.90;;;;;;5063824;28;19925;-78
2022/10/27 03:37:46;;;;;;;;;;;12.70;99.90;;;;;;5063401;28;20009;-78
2022/10/27 03:40:13;;;;;;;;;;;12.70;99.90;;;;;;5069368;28;20381;-79
2022/10/27 03:42:40;;;;;;;;;;;12.60;99.90;;;;;;5060792;28;20426;-78
2022/10/27 03:45:07;;;;;;;;;;;12.60;99.90;;;;;;5056853;28;19924;-77
2022/10/27 03:47:35;;;;;;;;;;;12.60;99.90;;;;;;5096874;28;20399;-78
2022/10/27 03:50:05;;;;;;;;;;;12.60;99.90;;;;;;5066665;28;19928;-78
2022/10/27 03:52:31;;;;;;;;;;;12.60;99.90;;;;;;5062061;28;19939;-78
2022/10/27 03:54:58;;;;;;;;;;;12.50;99.90;;;;;;5063678;28;20623;-76
2022/10/27 03:57:25;;;;;;;;;;;12.50;99.90;;;;;;5050428;28;20741;-75
2022/10/27 03:59:52;;;;;;;;;;;12.50;99.90;;;;;;5047963;28;20678;-75
2022/10/27 04:02:18;;;;;;;;;;;12.50;99.90;;;;;;5060727;28;19936;-76
2022/10/27 04:04:47;;;;;;;;;;;12.50;99.90;;;;;;5048526;28;19932;-78
2022/10/27 04:07:13;;;;;;;;;;;12.50;99.90;;;;;;5057888;28;20018;-75
2022/10/27 04:09:40;;;;;;;;;;;12.50;99.90;;;;;;5062362;28;20019;-78
2022/10/27 04:12:07;;;;;;;;;;;12.50;99.90;;;;;;5061527;28;19925;-78
2022/10/27 04:14:34;;;;;;;;;;;12.40;99.90;;;;;;5050922;28;19939;-76
2022/10/27 04:17:00;;;;;;;;;;;12.40;99.90;;;;;;5062808;28;19976;-76
2022/10/27 04:19:27;;;;;;;;;;;12.40;99.90;;;;;;5062172;28;19928;-76
2022/10/27 04:21:55;;;;;;;;;;;12.40;99.90;;;;;;5100530;28;19932;-76
2022/10/27 04:24:22;;;;;;;;;;;12.30;99.90;;;;;;5063554;28;19924;-78
2022/10/27 04:26:52;;;;;;;;;;;12.30;99.90;;;;;;5064396;28;19936;-80
2022/10/27 04:29:19;;;;;;;;;;;12.30;99.90;;;;;;5068339;28;19966;-83
2022/10/27 04:31:45;;;;;;;;;;;12.30;99.90;;;;;;5091617;28;19974;-86
2022/10/27 04:34:12;;;;;;;;;;;12.30;99.90;;;;;;5061241;28;20031;-79
2022/10/27 04:36:39;;;;;;;;;;;12.30;99.90;;;;;;5067885;28;19924;-77
2022/10/27 04:39:06;;;;;;;;;;;;;;;;;;5062938;28;19925;-76
2022/10/27 04:41:34;;;;;;;;;;;12.20;99.90;;;;;;5063527;28;20440;-77
2022/10/27 04:44:01;;;;;;;;;;;12.20;99.90;;;;;;5067355;28;19928;-77
2022/10/27 04:46:31;;;;;;;;;;;12.20;99.90;;;;;;5061689;28;19925;-82
2022/10/27 04:48:58;;;;;;;;;;;;;;;;;;5074038;28;19932;-79
2022/10/27 04:51:25;;;;;;;;;;;12.20;99.90;;;;;;5067518;28;19928;-78
2022/10/27 04:53:52;;;;;;;;;;;12.10;99.90;;;;;;5053292;28;20412;-83
2022/10/27 04:56:19;;;;;;;;;;;12.10;99.90;;;;;;5063611;28;20321;-76
2022/10/27 04:58:47;;;;;;;;;;;12.10;99.90;;;;;;5062160;28;19937;-77
2022/10/27 05:01:15;;;;;;;;;;;12.10;99.90;;;;;;5054535;28;19928;-76
2022/10/27 05:03:41;;;;;;;;;;;12.10;99.90;;;;;;5057308;28;20379;-76
2022/10/27 05:06:08;;;;;;;;;;;12.10;99.90;;;;;;5050731;28;19936;-75
2022/10/27 05:08:35;;;;;;;;;;;12.10;99.90;;;;;;5047850;28;20035;-79
2022/10/27 05:11:02;;;;;;;;;;;12.20;99.90;;;;;;5053450;28;19928;-81
2022/10/27 05:13:28;;;;;;;;;;;12.20;99.90;;;;;;5081222;28;20015;-82
2022/10/27 05:16:00;;;;;;;;;;;12.10;99.90;;;;;;5058996;28;19928;-78
2022/10/27 05:18:27;;;;;;;;;;;12.10;99.90;;;;;;5058116;28;19935;-77
2022/10/27 05:20:54;;;;;;;;;;;12.10;99.90;;;;;;5046191;28;19925;-76
2022/10/27 05:23:21;;;;;;;;;;;12.00;99.90;;;;;;5054448;28;19939;-76
2022/10/27 05:25:50;;;;;;;;;;;12.10;99.90;;;;;;5054225;28;20002;-76
2022/10/27 05:28:17;;;;;;;;;;;11.90;99.90;;;;;;5062832;28;19928;-75
2022/10/27 05:30:43;;;;;;;;;;;11.90;99.90;;;;;;5058353;28;20455;-78
2022/10/27 05:33:12;;;;;;;;;;;11.90;99.90;;;;;;5062623;28;20034;-77
2022/10/27 05:35:38;;;;;;;;;;;11.90;99.90;;;;;;5065519;28;20352;-80
2022/10/27 05:38:05;;;;;;;;;;;11.80;99.90;;;;;;5059756;28;19928;-76
2022/10/27 05:40:34;;;;;;;;;;;11.80;99.90;;;;;;5058636;28;19924;-76
2022/10/27 05:43:01;;;;;;;;;;;11.80;99.90;;;;;;5065428;28;20326;-77
2022/10/27 05:45:28;;;;;;;;;;;11.80;99.90;;;;;;5062552;28;19970;-76
2022/10/27 05:47:59;;;;;;;;;;;11.80;99.90;;;;;;5065797;28;19939;-76
2022/10/27 05:50:28;;;;;;;;;;;11.70;99.90;;;;;;5061916;28;20014;-76
2022/10/27 05:52:54;;;;;;;;;;;11.70;99.90;;;;;;5066630;28;19925;-76
2022/10/27 05:55:22;;;;;;;;;;;11.70;99.90;;;;;;5093686;28;19929;-76
2022/10/27 05:57:54;;;;;;;;;;;11.70;99.90;;;;;;5062940;28;19925;-76
2022/10/27 06:00:21;;;;;;;;;;;11.70;99.90;;;;;;5062187;28;20024;-77
2022/10/27 06:02:48;;;;;;;;;;;11.70;99.90;;;;;;5061219;28;20015;-77
2022/10/27 06:05:15;;;;;;;;;;;11.60;99.90;;;;;;5062015;28;20010;-76
2022/10/27 06:07:43;;;;;;;;;;;11.60;99.90;;;;;;5060948;28;20015;-79
2022/10/27 06:10:13;;;;;;;;;;;11.70;99.90;;;;;;5062809;28;19928;-78
2022/10/27 06:12:40;;;;;;;;;;;11.70;99.90;;;;;;5057204;28;19936;-80
2022/10/27 06:15:07;;;;;;;;;;;11.60;99.90;;;;;;5066689;28;20777;-76
2022/10/27 06:17:34;;;;;;;;;;;11.60;99.90;;;;;;5102149;28;20764;-76
2022/10/27 06:20:00;;;;;;;;;;;11.60;99.90;;;;;;5068300;28;19971;-75
2022/10/27 06:22:27;;;;;;;;;;;11.60;99.90;;;;;;5063276;28;19978;-76
2022/10/27 06:24:56;;;;;;;;;;;11.60;99.90;;;;;;5064013;28;19952;-76
2022/10/27 06:27:22;;;;;;;;;;;11.60;99.90;;;;;;5066509;28;19925;-76
2022/10/27 06:29:49;;;;;;;;;;;11.60;99.90;;;;;;5069151;28;20371;-77
2022/10/27 06:32:16;;;;;;;;;;;11.60;99.90;;;;;;5064575;28;19963;-77
2022/10/27 06:34:43;;;;;;;;;;;11.60;99.90;;;;;;5065970;28;19999;-76
2022/10/27 06:37:09;;;;;;;;;;;11.60;99.90;;;;;;5067743;28;20302;-77
2022/10/27 06:39:37;;;;;;;;;;;11.50;99.90;;;;;;5069787;28;19947;-78
2022/10/27 06:42:05;;;;;;;;;;;11.60;99.90;;;;;;5061078;28;19993;-76
2022/10/27 06:44:32;;;;;;;;;;;11.50;99.90;;;;;;5100183;28;19967;-79
2022/10/27 06:46:58;;;;;;;;;;;11.50;99.90;;;;;;5067196;28;19931;-77
2022/10/27 06:49:25;;;;;;;;;;;11.50;99.90;;;;;;5070271;28;20340;-75
2022/10/27 06:51:53;;;;;;;;;;;11.50;99.90;;;;;;5059906;28;20009;-75
2022/10/27 06:54:20;;;;;;;;;;;11.50;99.90;;;;;;5064250;28;20449;-75
2022/10/27 06:56:47;;;;;;;;;;;11.50;99.90;;;;;;5063167;28;19931;-74
2022/10/27 06:59:15;;;;;;;;;;;11.40;99.90;;;;;;5068468;28;19925;-74
2022/10/27 07:01:42;;;;;;;;;;;11.50;99.90;;;;;;5059148;28;19924;-75
2022/10/27 07:04:08;;;;;;;;;;;11.50;99.90;;;;;;5062426;28;19925;-75
2022/10/27 07:06:35;;;;;;;;;;;11.40;99.90;;;;;;5062333;28;19933;-78
2022/10/27 07:09:02;;;;;;;;;;;11.40;99.90;;;;;;5060309;28;19931;-78
2022/10/27 07:11:29;;;;;;;;;;;11.40;99.90;;;;;;5063526;28;19925;-75
2022/10/27 07:13:55;;;;;;;;;;;11.40;99.90;;;;;;5061855;28;20046;-75
2022/10/27 07:16:24;;;;;;;;;;;11.40;99.90;;;;;;5067995;28;19929;-75
2022/10/27 07:18:50;;;;;;;;;;;11.40;99.90;;;;;;5063025;28;19924;-77
2022/10/27 07:21:17;;;;;;;;;;;11.40;99.90;;;;;;5066343;28;19942;-75
2022/10/27 07:23:44;;;;;;;;;;;11.40;99.90;;;;;;5069937;28;19932;-75
2022/10/27 07:26:11;;;;;;;;;;;11.30;99.90;;;;;;5063553;28;19968;-77
2022/10/27 07:28:38;;;;;;;;;;;11.40;99.90;;;;;;5064217;28;20456;-74
2022/10/27 07:31:05;;;;;;;;;;;11.30;99.90;;;;;;5069596;28;20003;-77
2022/10/27 07:33:33;;;;;;;;;;;11.30;99.90;;;;;;5066564;28;20268;-77
2022/10/27 07:36:00;;;;;;;;;;;11.40;99.90;;;;;;5097573;28;20406;-79
2022/10/27 07:38:26;;;;;;;;;;;11.30;99.90;;;;;;5060833;28;19928;-75
2022/10/27 07:40:53;;;;;;;;;;;11.40;99.90;;;;;;5063232;28;20334;-75
2022/10/27 07:43:20;;;;;;;;;;;11.40;99.90;;;;;;5068887;28;20504;-75
2022/10/27 07:45:47;;;;;;;;;;;11.30;99.90;;;;;;5061779;28;19928;-77
2022/10/27 07:48:14;;;;;;;;;;;11.40;99.90;;;;;;5067197;28;20004;-77
2022/10/27 07:50:43;;;;;;;;;;;11.40;99.90;;;;;;5066945;28;20024;-76
2022/10/27 07:53:10;;;;;;;;;;;11.30;99.90;;;;;;5066161;28;19924;-79
2022/10/27 07:55:37;;;;;;;;;;;11.40;99.90;;;;;;5059313;28;19933;-77
2022/10/27 07:58:05;;;;;;;;;;;11.40;99.90;;;;;;5065475;28;19956;-78
2022/10/27 08:00:32;;;;;;;;;;;11.40;99.90;;;;;;5085010;27;19925;-76
2022/10/27 08:02:59;;;;;;;;;;;11.40;99.90;;;;;;5057072;28;20283;-75
2022/10/27 08:05:26;;;;;;;;;;;11.40;99.90;;;;;;5055962;28;19929;-75
2022/10/27 08:07:57;;;;;;;;;;;11.40;99.90;;;;;;5098113;28;20032;-77
2022/10/27 08:10:31;;;;;;;;;;;11.40;99.90;;;;;;5060803;28;20132;-74
2022/10/27 08:12:58;;;;;;;;;;;11.40;99.90;;;;;;5065795;28;19994;-75
2022/10/27 08:15:25;;;;;;;;;;;11.40;99.90;;;;;;5063627;28;20002;-76
2022/10/27 08:17:52;;;;;;;;;;;11.40;99.90;;;;;;5063762;28;19924;-77
2022/10/27 08:20:19;;;;;;;;;;;11.40;99.90;;;;;;5060058;28;19928;-74
2022/10/27 08:22:46;;;;;;;;;;;11.40;99.90;;;;;;5065687;28;19928;-75
2022/10/27 08:25:14;;;;;;;;;;;11.30;99.90;;;;;;5064716;28;19947;-75
2022/10/27 08:27:41;;;;;;;;;;;11.30;99.90;;;;;;5064866;28;19925;-77
2022/10/27 08:30:09;;;;;;;;;;;11.40;99.90;;;;;;5061153;28;19939;-75
2022/10/27 08:32:36;;;;;;;;;;;11.40;99.90;;;;;;5068791;28;19975;-78
2022/10/27 08:35:03;;;;;;;;;;;11.30;99.90;;;;;;5059679;28;20291;-76
2022/10/27 08:37:29;;;;;;;;;;;11.40;99.90;;;;;;5059356;28;20444;-74
2022/10/27 08:39:56;;;;;;;;;;;11.40;99.90;;;;;;5095792;28;19928;-75
2022/10/27 08:42:32;;;;;;;;;;;11.40;99.90;;;;;;5066321;28;19947;-75
2022/10/27 08:45:00;;;;;;;;;;;11.40;99.90;;;;;;5063305;28;19925;-76
2022/10/27 08:47:27;;;;;;;;;;;11.40;99.90;;;;;;5064978;28;20306;-75
2022/10/27 08:49:55;;;;;;;;;;;11.40;99.90;;;;;;5064381;28;19932;-73
2022/10/27 08:52:26;;;;;;;;;;;11.40;99.90;;;;;;5063149;28;20303;-74
2022/10/27 08:54:54;;;;;;;;;;;11.40;99.90;;;;;;5060915;28;20006;-78
2022/10/27 08:57:24;;;;;;;;;;;11.40;99.90;;;;;;5063932;28;20027;-77
2022/10/27 08:59:54;;;;;;;;;;;11.40;99.90;;;;;;5062844;28;20425;-77
2022/10/27 09:02:31;;;;;;;;;;;11.40;99.90;;;;;;5060413;28;19929;-75
2022/10/27 09:05:07;;;;;;;;;;;11.40;99.90;;;;;;5063416;28;19974;-75
2022/10/27 09:07:36;;;;;;;;;;;11.40;99.90;;;;;;5067188;28;19924;-75
2022/10/27 09:10:04;;;;;;;;;;;11.40;99.90;;;;;;5062317;28;19938;-75
2022/10/27 09:12:45;;;;;;;;;;;11.40;99.90;;;;;;5065433;28;19956;-75
2022/10/27 09:15:21;;;;;;;;;;;11.40;99.90;;;;;;5058719;28;19928;-75
2022/10/27 09:17:50;;;;;;;;;;;11.40;99.90;;;;;;5067644;28;19932;-75
2022/10/27 09:20:19;;;;;;;;;;;11.50;99.90;;;;;;5060653;28;20493;-75
2022/10/27 09:22:47;;;;;;;;;;;11.40;99.90;;;;;;5062896;28;19960;-75
2022/10/27 09:25:16;;;;;;;;;;;11.40;99.90;;;;;;5060675;28;19928;-75
2022/10/27 09:27:43;;;;;;;;;;;11.50;99.90;;;;;;5062108;28;19925;-75
2022/10/27 09:30:14;;;;;;;;;;;11.40;99.90;;;;;;5059514;28;19924;-78
2022/10/27 09:32:43;;;;;;;;;;;11.50;99.90;;;;;;5063514;28;19928;-75
2022/10/27 09:35:11;;;;;;;;;;;11.50;99.90;;;;;;5059649;28;19924;-77
2022/10/27 09:37:40;;;;;;;;;;;11.50;99.90;;;;;;5061176;28;19943;-77
2022/10/27 09:40:11;;;;;;;;;;;11.50;99.90;;;;;;5062327;28;19925;-75
2022/10/27 09:42:38;;;;;;;;;;;11.50;99.90;;;;;;5059595;28;19936;-75
2022/10/27 09:45:12;;;;;;;;;;;11.50;99.90;;;;;;5066001;28;20410;-75
2022/10/27 09:47:39;;;;;;;;;;;11.50;99.90;;;;;;5059326;28;19948;-75
2022/10/27 09:50:15;;;;;;;;;;;11.50;99.90;;;;;;5064920;28;19932;-74
2022/10/27 09:52:43;;;;;;;;;;;11.50;99.90;;;;;;5092622;28;19932;-73
2022/10/27 09:55:10;;;;;;;;;;;11.50;99.90;;;;;;5075654;28;19932;-75
2022/10/27 09:57:38;;;;;;;;;;;11.50;99.90;;;;;;5064532;28;20007;-75
2022/10/27 10:00:06;;;;;;;;;;;11.50;99.90;;;;;;5064347;28;19929;-77
2022/10/27 10:02:42;;;;;;;;;;;11.60;99.90;;;;;;5067359;28;19932;-77
2022/10/27 10:05:20;;;;;;;;;;;11.60;99.90;;;;;;5058322;28;20386;-75
2022/10/27 10:07:47;;;;;;;;;;;11.60;99.90;;;;;;5064753;28;19985;-75
2022/10/27 10:10:17;;;;;;;;;;;11.60;99.90;;;;;;5063629;28;19963;-75
2022/10/27 10:12:44;;;;;;;;;;;11.60;99.90;;;;;;5061098;28;19940;-74
2022/10/27 10:15:16;;;;;;;;;;;11.60;99.90;;;;;;5063531;28;19925;-76
2022/10/27 10:17:43;;;;;;;;;;;11.60;99.90;;;;;;5097993;28;20414;-76
2022/10/27 10:20:25;;;;;;;;;;;11.60;99.90;;;;;;5060286;28;20429;-75
2022/10/27 10:22:51;;;;;;;;;;;11.60;99.90;;;;;;5062687;28;19928;-77
2022/10/27 10:25:22;;;;;;;;;;;11.60;99.90;;;;;;5062268;28;19987;-77
2022/10/27 10:27:55;;;;;;;;;;;11.60;99.90;;;;;;5064197;28;19928;-78
2022/10/27 10:30:22;;;;;;;;;;;11.60;99.90;;;;;;5060142;28;20121;-75
2022/10/27 10:32:51;;;;;;;;;;;11.60;99.90;;;;;;5067553;28;20335;-74
2022/10/27 10:35:32;;;;;;;;;;;11.60;99.90;;;;;;5065094;28;20023;-74
2022/10/27 10:38:00;;;;;;;;;;;11.60;99.90;;;;;;5093996;28;20356;-75
2022/10/27 10:40:28;;;;;;;;;;;11.70;99.90;;;;;;5063065;28;19935;-75
2022/10/27 10:43:11;;;;;;;;;;;11.70;99.90;;;;;;5094079;28;19932;-75
2022/10/27 10:45:38;;;;;;;;;;;11.70;99.90;;;;;;5065867;28;19970;-75
2022/10/27 10:48:09;;;;;;;;;;;11.70;99.90;;;;;;5064252;28;19930;-74
2022/10/27 10:50:46;;;;;;;;;;;11.70;99.90;;;;;;5065356;28;19939;-75
2022/10/27 10:53:25;;;;;;;;;;;11.70;99.90;;;;;;5064390;28;19924;-75
2022/10/27 10:55:53;;;;;;;;;;;11.70;99.90;;;;;;5088051;28;20029;-77
2022/10/27 10:58:21;;;;;;;;;;;11.70;99.90;;;;;;5094942;28;20398;-75
2022/10/27 11:00:55;;;;;;;;;;;11.70;99.90;;;;;;5064394;28;19981;-75
2022/10/27 11:03:23;;;;;;;;;;;11.70;99.90;;;;;;5063987;28;19964;-75
2022/10/27 11:05:54;;;;;;;;;;;11.80;99.90;;;;;;5067502;28;20378;-77
2022/10/27 11:08:22;;;;;;;;;;;11.80;99.90;;;;;;5070128;28;19933;-75
2022/10/27 11:10:52;;;;;;;;;;;11.80;99.90;;;;;;5069688;28;19925;-75
2022/10/27 11:13:19;;;;;;;;;;;11.80;99.90;;;;;;5063845;28;19929;-76
2022/10/27 11:15:48;;;;;;;;;;;11.90;99.90;;;;;;5099369;27;19932;-76
2022/10/27 11:18:16;;;;;;;;;;;11.80;99.90;;;;;;5071255;28;19986;-77
2022/10/27 11:20:44;;;;;;;;;;;11.80;99.90;;;;;;5069498;28;19925;-74
2022/10/27 11:23:16;;;;;;;;;;;11.80;99.90;;;;;;5063263;28;20325;-75
2022/10/27 11:25:43;;;;;;;;;;;11.80;99.90;;;;;;5064417;28;20405;-75
2022/10/27 11:28:15;;;;;;;;;;;11.90;99.90;;;;;;5066670;28;19950;-74
2022/10/27 11:30:47;;;;;;;;;;;11.90;99.90;;;;;;5067092;28;19924;-73
2022/10/27 11:33:17;;;;;;;;;;;11.90;99.90;;;;;;5067785;28;19947;-74
2022/10/27 11:35:48;;;;;;;;;;;11.90;99.90;;;;;;5066276;28;19947;-74
2022/10/27 11:38:19;;;;;;;;;;;11.90;99.90;;;;;;5067987;28;19932;-77
2022/10/27 11:40:48;;;;;;;;;;;12.00;99.90;;;;;;5064048;28;19964;-77
2022/10/27 11:43:21;;;;;;;;;;;12.00;99.90;;;;;;5068616;28;20448;-75
2022/10/27 11:45:50;;;;;;;;;;;12.00;99.90;;;;;;5066993;28;20027;-75
2022/10/27 11:48:19;;;;;;;;;;;12.00;99.90;;;;;;5066413;28;20410;-75
2022/10/27 11:50:48;;;;;;;;;;;12.00;99.90;;;;;;5062907;28;20421;-75
2022/10/27 11:53:15;;;;;;;;;;;12.00;99.90;;;;;;5069212;28;19996;-77
2022/10/27 11:55:53;;;;;;;;;;;12.10;99.90;;;;;;5067120;28;19924;-75
2022/10/27 11:58:25;;;;;;;;;;;12.10;99.90;;;;;;5097810;28;19925;-75
2022/10/27 12:00:55;;;;;;;;;;;12.10;99.90;;;;;;5067914;28;19928;-77
2022/10/27 12:03:34;;;;;;;;;;;12.20;99.90;;;;;;5061793;28;20024;-77
2022/10/27 12:06:03;;;;;;;;;;;12.10;99.90;;;;;;5063471;28;19964;-76
2022/10/27 12:08:35;;;;;;;;;;;12.20;99.90;;;;;;5067683;28;20021;-75
2022/10/27 12:11:17;;;;;;;;;;;12.20;99.90;;;;;;5063442;28;20297;-75
2022/10/27 12:13:48;;;;;;;;;;;12.20;99.90;;;;;;5064484;28;19987;-75
2022/10/27 12:16:17;;;;;;;;;;;12.30;99.90;;;;;;5063497;28;20414;-77
2022/10/27 12:18:46;;;;;;;;;;;12.30;99.90;;;;;;5068780;28;20012;-76
2022/10/27 12:21:14;;;;;;;;;;;12.40;99.90;;;;;;5063692;28;20003;-75
2022/10/27 12:23:44;;;;;;;;;;;12.40;99.90;;;;;;5060842;28;20576;-74
2022/10/27 12:26:14;;;;;;;;;;;12.40;99.90;;;;;;5064953;28;20028;-74
2022/10/27 12:28:41;;;;;;;;;;;12.50;99.90;;;;;;5066289;28;19968;-78
2022/10/27 12:31:13;;;;;;;;;;;12.50;99.90;;;;;;5066461;28;19928;-78
2022/10/27 12:33:43;;;;;;;;;;;12.60;99.90;;;;;;5066960;28;19967;-76
2022/10/27 12:36:17;;;;;;;;;;;12.60;99.90;;;;;;5068890;28;21550;-74
2022/10/27 12:38:49;;;;;;;;;;;12.60;99.90;;;;;;5062282;28;19929;-74
2022/10/27 12:41:21;;;;;;;;;;;12.70;99.90;;;;;;5057657;28;20016;-74
2022/10/27 12:43:51;;;;;;;;;;;12.70;99.90;;;;;;5065225;28;19928;-74
2022/10/27 12:46:35;;;;;;;;;;;12.70;99.90;;;;;;5066085;28;20026;-74
2022/10/27 12:49:09;;;;;;;;;;;12.80;99.90;;;;;;5061363;28;20015;-75
2022/10/27 12:51:41;;;;;;;;;;;12.80;99.90;;;;;;5063346;28;19932;-77
2022/10/27 12:54:18;;;;;;;;;;;12.90;99.90;;;;;;5065009;28;19935;-74
2022/10/27 12:56:48;;;;;;;;;;;12.90;99.90;;;;;;5068336;28;19994;-75
2022/10/27 12:59:19;;;;;;;;;;;12.90;99.90;;;;;;5058360;28;19931;-74
2022/10/27 13:01:53;;;;;;;;;;;13.00;99.90;;;;;;5067441;28;20457;-76
2022/10/27 13:04:32;;;;;;;;;;;13.00;99.90;;;;;;5064149;28;19932;-76
2022/10/27 13:07:09;;;;;;;;;;;13.10;99.90;;;;;;5062337;28;19924;-75
2022/10/27 13:09:45;;;;;;;;;;;13.10;99.90;;;;;;5059607;28;19925;-76
2022/10/27 13:12:23;;;;;;;;;;;13.20;99.90;;;;;;5062862;28;19933;-74
2022/10/27 13:14:54;;;;;;;;;;;13.20;99.90;;;;;;5087419;28;20023;-74
2022/10/27 13:17:26;;;;;;;;;;;13.30;99.90;;;;;;5060451;28;19925;-76
2022/10/27 13:19:54;;;;;;;;;;;13.30;99.90;;;;;;5062442;28;19924;-76
2022/10/27 13:22:23;;;;;;;;;;;13.40;99.90;;;;;;5061061;28;19932;-76
2022/10/27 13:24:53;;;;;;;;;;;13.40;99.90;;;;;;5057128;28;20401;-76
2022/10/27 13:27:22;;;;;;;;;;;13.50;99.90;;;;;;5066442;28;20345;-76
2022/10/27 13:29:51;;;;;;;;;;;13.60;99.90;;;;;;5058669;28;19928;-76
2022/10/27 13:32:29;;;;;;;;;;;13.60;99.90;;;;;;5058436;28;21401;-78
2022/10/27 13:35:16;;;;;;;;;;;13.60;99.90;;;;;;5058778;28;19928;-79
2022/10/27 13:37:43;;;;;;;;;;;13.70;99.90;;;;;;5065614;28;19924;-78
2022/10/27 13:40:25;;;;;;;;;;;13.80;99.90;;;;;;5063970;28;20016;-76
2022/10/27 13:42:53;;;;;;;;;;;13.80;99.90;;;;;;5062588;28;19924;-76
2022/10/27 13:45:38;;;;;;;;;;;13.80;99.90;;;;;;5066372;28;19978;-79
2022/10/27 13:48:35;;;;;;;;;;;13.90;99.90;;;;;;5064809;28;20382;-79
2022/10/27 13:51:16;;;;;;;;;;;13.90;99.90;;;;;;5003609;28;19964;-79
2022/10/27 13:53:44;;;;;;;;;;;13.90;99.90;;;;;;5052368;28;20566;-76
2022/10/27 13:56:26;;;;;;;;;;;13.90;99.90;;;;;;5063644;28;19990;-77
2022/10/27 13:58:56;;;;;;;;;;;14.00;99.90;;;;;;5059841;28;19924;-77
2022/10/27 14:01:30;;;;;;;;;;;14.00;99.90;;;;;;5081911;28;19963;-76
2022/10/27 14:04:16;;;;;;;;;;;14.10;99.90;;;;;;5055592;28;20099;-79
2022/10/27 14:06:44;;;;;;;;;;;14.10;99.90;;;;;;5042583;28;20161;-78
2022/10/27 14:09:23;;;;;;;;;;;14.20;99.90;;;;;;5057571;28;20062;-78
2022/10/27 14:11:53;;;;;;;;;;;14.20;99.90;;;;;;5055414;28;19971;-80
2022/10/27 14:14:24;;;;;;;;;;;14.20;99.90;;;;;;5083671;28;20019;-77
2022/10/27 14:16:52;;;;;;;;;;;14.40;99.90;;;;;;5088547;28;20940;-80
2022/10/27 14:19:21;;;;;;;;;;;14.40;99.90;;;;;;5057485;28;19929;-79
2022/10/27 14:21:48;;;;;;;;;;;14.40;99.90;;;;;;5052477;28;19925;-80
2022/10/27 14:24:17;;;;;;;;;;;14.40;99.90;;;;;;5060267;28;19990;-80
2022/10/27 14:26:45;;;;;;;;;;;14.40;99.90;;;;;;5064308;28;20524;-77
2022/10/27 14:29:20;;;;;;;;;;;14.40;99.90;;;;;;5060261;28;19929;-77
2022/10/27 14:31:46;;;;;;;;;;;14.40;99.90;;;;;;5052008;28;19988;-75